sensor_id;sensor_type;location;lat;lon;timestamp;P1;durP1;ratioP1;P2;durP2;ratioP2
22652;SDS011;11493;43.344;26.226;2024-01-25T00:00:57;33.40;;;18.58;;
22652;SDS011;11493;43.344;26.226;2024-01-25T00:03:24;33.72;;;17.65;;
22652;SDS011;11493;43.344;26.226;2024-01-25T00:05:51;33.03;;;17.95;;
22652;SDS011;11493;43.344;26.226;2024-01-25T00:08:18;32.55;;;17.00;;
22652;SDS011;11493;43.344;26.226;2024-01-25T00:10:45;28.23;;;16.30;;
22652;SDS011;11493;43.344;26.226;2024-01-25T00:13:12;27.20;;;16.38;;
22652;SDS011;11493;43.344;26.226;2024-01-25T00:15:39;29.98;;;14.57;;
22652;SDS011;11493;43.344;26.226;2024-01-25T00:18:06;31.40;;;16.65;;
22652;SDS011;11493;43.344;26.226;2024-01-25T00:20:33;34.92;;;17.15;;
22652;SDS011;11493;43.344;26.226;2024-01-25T00:23:00;28.10;;;16.27;;
22652;SDS011;11493;43.344;26.226;2024-01-25T00:25:27;27.33;;;15.75;;
22652;SDS011;11493;43.344;26.226;2024-01-25T00:27:54;36.42;;;19.88;;
22652;SDS011;11493;43.344;26.226;2024-01-25T00:30:21;33.58;;;18.08;;
22652;SDS011;11493;43.344;26.226;2024-01-25T00:32:48;33.63;;;16.38;;
22652;SDS011;11493;43.344;26.226;2024-01-25T00:35:17;31.08;;;16.13;;
22652;SDS011;11493;43.344;26.226;2024-01-25T00:37:44;21.85;;;12.32;;
22652;SDS011;11493;43.344;26.226;2024-01-25T00:40:12;20.23;;;10.32;;
22652;SDS011;11493;43.344;26.226;2024-01-25T00:42:45;20.02;;;10.50;;
22652;SDS011;11493;43.344;26.226;2024-01-25T00:45:20;14.48;;;9.43;;
22652;SDS011;11493;43.344;26.226;2024-01-25T00:47:48;17.67;;;8.95;;
22652;SDS011;11493;43.344;26.226;2024-01-25T00:50:16;11.13;;;8.02;;
22652;SDS011;11493;43.344;26.226;2024-01-25T00:52:49;7.68;;;6.68;;
22652;SDS011;11493;43.344;26.226;2024-01-25T00:55:17;11.77;;;7.28;;
22652;SDS011;11493;43.344;26.226;2024-01-25T00:57:45;10.35;;;7.78;;
22652;SDS011;11493;43.344;26.226;2024-01-25T01:00:12;9.77;;;6.72;;
22652;SDS011;11493;43.344;26.226;2024-01-25T01:02:40;17.60;;;7.85;;
22652;SDS011;11493;43.344;26.226;2024-01-25T01:05:10;10.40;;;7.18;;
22652;SDS011;11493;43.344;26.226;2024-01-25T01:07:39;11.55;;;7.90;;
22652;SDS011;11493;43.344;26.226;2024-01-25T01:10:09;14.55;;;9.20;;
22652;SDS011;11493;43.344;26.226;2024-01-25T01:12:37;13.25;;;8.45;;
22652;SDS011;11493;43.344;26.226;2024-01-25T01:15:04;13.27;;;8.00;;
22652;SDS011;11493;43.344;26.226;2024-01-25T01:17:31;12.18;;;9.10;;
22652;SDS011;11493;43.344;26.226;2024-01-25T01:19:58;13.10;;;9.82;;
22652;SDS011;11493;43.344;26.226;2024-01-25T01:22:26;18.77;;;11.52;;
22652;SDS011;11493;43.344;26.226;2024-01-25T01:24:53;17.40;;;13.20;;
22652;SDS011;11493;43.344;26.226;2024-01-25T01:27:21;18.67;;;12.82;;
22652;SDS011;11493;43.344;26.226;2024-01-25T01:29:48;18.00;;;12.25;;
22652;SDS011;11493;43.344;26.226;2024-01-25T01:32:15;16.95;;;10.55;;
22652;SDS011;11493;43.344;26.226;2024-01-25T01:34:42;13.73;;;9.75;;
22652;SDS011;11493;43.344;26.226;2024-01-25T01:37:09;19.63;;;10.88;;
22652;SDS011;11493;43.344;26.226;2024-01-25T01:39:36;17.50;;;8.18;;
22652;SDS011;11493;43.344;26.226;2024-01-25T01:42:03;13.32;;;8.00;;
22652;SDS011;11493;43.344;26.226;2024-01-25T01:44:30;13.88;;;7.85;;
22652;SDS011;11493;43.344;26.226;2024-01-25T01:46:57;12.98;;;8.68;;
22652;SDS011;11493;43.344;26.226;2024-01-25T01:49:25;10.52;;;7.35;;
22652;SDS011;11493;43.344;26.226;2024-01-25T01:51:52;10.60;;;7.15;;
22652;SDS011;11493;43.344;26.226;2024-01-25T01:54:20;10.48;;;6.57;;
22652;SDS011;11493;43.344;26.226;2024-01-25T01:56:47;9.70;;;5.82;;
22652;SDS011;11493;43.344;26.226;2024-01-25T01:59:15;12.27;;;5.30;;
22652;SDS011;11493;43.344;26.226;2024-01-25T02:01:42;11.18;;;5.40;;
22652;SDS011;11493;43.344;26.226;2024-01-25T02:04:09;10.50;;;4.95;;
22652;SDS011;11493;43.344;26.226;2024-01-25T02:06:37;7.10;;;4.63;;
22652;SDS011;11493;43.344;26.226;2024-01-25T02:09:04;6.43;;;4.60;;
22652;SDS011;11493;43.344;26.226;2024-01-25T02:11:31;5.50;;;4.20;;
22652;SDS011;11493;43.344;26.226;2024-01-25T02:13:58;7.43;;;4.40;;
22652;SDS011;11493;43.344;26.226;2024-01-25T02:16:25;5.97;;;4.30;;
22652;SDS011;11493;43.344;26.226;2024-01-25T02:18:52;5.88;;;4.80;;
22652;SDS011;11493;43.344;26.226;2024-01-25T02:21:23;9.30;;;5.13;;
22652;SDS011;11493;43.344;26.226;2024-01-25T02:23:50;8.15;;;5.18;;
22652;SDS011;11493;43.344;26.226;2024-01-25T02:26:18;6.47;;;4.38;;
22652;SDS011;11493;43.344;26.226;2024-01-25T02:28:45;6.45;;;4.55;;
22652;SDS011;11493;43.344;26.226;2024-01-25T02:31:12;8.23;;;4.97;;
22652;SDS011;11493;43.344;26.226;2024-01-25T02:33:39;7.38;;;4.20;;
22652;SDS011;11493;43.344;26.226;2024-01-25T02:36:06;6.18;;;3.75;;
22652;SDS011;11493;43.344;26.226;2024-01-25T02:38:33;5.85;;;3.28;;
22652;SDS011;11493;43.344;26.226;2024-01-25T02:41:00;5.10;;;2.80;;
22652;SDS011;11493;43.344;26.226;2024-01-25T02:43:27;4.72;;;3.13;;
22652;SDS011;11493;43.344;26.226;2024-01-25T02:45:54;4.15;;;2.72;;
22652;SDS011;11493;43.344;26.226;2024-01-25T02:48:21;4.40;;;3.22;;
22652;SDS011;11493;43.344;26.226;2024-01-25T02:50:48;7.05;;;3.05;;
22652;SDS011;11493;43.344;26.226;2024-01-25T02:53:15;4.60;;;3.38;;
22652;SDS011;11493;43.344;26.226;2024-01-25T02:55:42;5.22;;;2.55;;
22652;SDS011;11493;43.344;26.226;2024-01-25T02:58:09;4.60;;;3.40;;
22652;SDS011;11493;43.344;26.226;2024-01-25T03:00:36;5.95;;;3.30;;
22652;SDS011;11493;43.344;26.226;2024-01-25T03:03:03;9.90;;;3.00;;
22652;SDS011;11493;43.344;26.226;2024-01-25T03:05:30;4.63;;;3.33;;
22652;SDS011;11493;43.344;26.226;2024-01-25T03:07:58;6.95;;;3.35;;
22652;SDS011;11493;43.344;26.226;2024-01-25T03:10:24;7.45;;;3.70;;
22652;SDS011;11493;43.344;26.226;2024-01-25T03:12:51;4.35;;;3.72;;
22652;SDS011;11493;43.344;26.226;2024-01-25T03:15:18;4.55;;;2.90;;
22652;SDS011;11493;43.344;26.226;2024-01-25T03:17:45;3.38;;;3.08;;
22652;SDS011;11493;43.344;26.226;2024-01-25T03:20:12;3.65;;;3.08;;
22652;SDS011;11493;43.344;26.226;2024-01-25T03:22:39;4.93;;;3.10;;
22652;SDS011;11493;43.344;26.226;2024-01-25T03:25:07;4.80;;;3.65;;
22652;SDS011;11493;43.344;26.226;2024-01-25T03:27:35;3.85;;;3.05;;
22652;SDS011;11493;43.344;26.226;2024-01-25T03:30:02;5.28;;;3.35;;
22652;SDS011;11493;43.344;26.226;2024-01-25T03:32:32;5.55;;;3.47;;
22652;SDS011;11493;43.344;26.226;2024-01-25T03:35:00;5.57;;;3.50;;
22652;SDS011;11493;43.344;26.226;2024-01-25T03:37:27;6.25;;;3.15;;
22652;SDS011;11493;43.344;26.226;2024-01-25T03:39:54;5.32;;;3.53;;
22652;SDS011;11493;43.344;26.226;2024-01-25T03:42:21;5.13;;;3.35;;
22652;SDS011;11493;43.344;26.226;2024-01-25T03:44:48;4.93;;;3.45;;
22652;SDS011;11493;43.344;26.226;2024-01-25T03:47:16;4.03;;;2.67;;
22652;SDS011;11493;43.344;26.226;2024-01-25T03:49:43;4.55;;;2.97;;
22652;SDS011;11493;43.344;26.226;2024-01-25T03:52:10;6.80;;;3.35;;
22652;SDS011;11493;43.344;26.226;2024-01-25T03:54:37;6.60;;;3.85;;
22652;SDS011;11493;43.344;26.226;2024-01-25T03:57:04;5.93;;;3.95;;
22652;SDS011;11493;43.344;26.226;2024-01-25T03:59:31;5.75;;;3.47;;
22652;SDS011;11493;43.344;26.226;2024-01-25T04:01:58;8.25;;;3.13;;
22652;SDS011;11493;43.344;26.226;2024-01-25T04:04:26;4.13;;;3.13;;
22652;SDS011;11493;43.344;26.226;2024-01-25T04:06:53;5.70;;;3.38;;
22652;SDS011;11493;43.344;26.226;2024-01-25T04:09:20;5.38;;;2.90;;
22652;SDS011;11493;43.344;26.226;2024-01-25T04:11:47;5.10;;;3.40;;
22652;SDS011;11493;43.344;26.226;2024-01-25T04:14:14;4.55;;;3.88;;
22652;SDS011;11493;43.344;26.226;2024-01-25T04:16:42;5.65;;;3.45;;
22652;SDS011;11493;43.344;26.226;2024-01-25T04:19:09;4.80;;;3.50;;
22652;SDS011;11493;43.344;26.226;2024-01-25T04:21:39;5.65;;;3.58;;
22652;SDS011;11493;43.344;26.226;2024-01-25T04:24:06;6.55;;;3.45;;
22652;SDS011;11493;43.344;26.226;2024-01-25T04:26:33;6.00;;;3.95;;
22652;SDS011;11493;43.344;26.226;2024-01-25T04:29:00;6.18;;;3.30;;
22652;SDS011;11493;43.344;26.226;2024-01-25T04:31:27;9.05;;;4.28;;
22652;SDS011;11493;43.344;26.226;2024-01-25T04:33:54;6.45;;;3.30;;
22652;SDS011;11493;43.344;26.226;2024-01-25T04:36:21;7.05;;;3.60;;
22652;SDS011;11493;43.344;26.226;2024-01-25T04:38:48;6.00;;;3.72;;
22652;SDS011;11493;43.344;26.226;2024-01-25T04:41:15;8.32;;;3.50;;
22652;SDS011;11493;43.344;26.226;2024-01-25T04:43:42;5.72;;;4.18;;
22652;SDS011;11493;43.344;26.226;2024-01-25T04:46:13;6.15;;;4.05;;
22652;SDS011;11493;43.344;26.226;2024-01-25T04:48:40;7.18;;;4.95;;
22652;SDS011;11493;43.344;26.226;2024-01-25T04:51:07;7.32;;;4.45;;
22652;SDS011;11493;43.344;26.226;2024-01-25T04:53:35;5.20;;;4.57;;
22652;SDS011;11493;43.344;26.226;2024-01-25T04:56:02;7.38;;;5.00;;
22652;SDS011;11493;43.344;26.226;2024-01-25T04:58:29;10.10;;;5.43;;
22652;SDS011;11493;43.344;26.226;2024-01-25T05:00:56;7.32;;;4.97;;
22652;SDS011;11493;43.344;26.226;2024-01-25T05:03:23;6.38;;;4.63;;
22652;SDS011;11493;43.344;26.226;2024-01-25T05:05:50;7.50;;;6.00;;
22652;SDS011;11493;43.344;26.226;2024-01-25T05:08:17;8.38;;;5.00;;
22652;SDS011;11493;43.344;26.226;2024-01-25T05:10:44;11.40;;;6.10;;
22652;SDS011;11493;43.344;26.226;2024-01-25T05:13:11;7.20;;;4.55;;
22652;SDS011;11493;43.344;26.226;2024-01-25T05:15:39;8.70;;;5.18;;
22652;SDS011;11493;43.344;26.226;2024-01-25T05:18:06;7.78;;;4.20;;
22652;SDS011;11493;43.344;26.226;2024-01-25T05:20:34;11.07;;;5.47;;
22652;SDS011;11493;43.344;26.226;2024-01-25T05:23:04;7.00;;;4.75;;
22652;SDS011;11493;43.344;26.226;2024-01-25T05:25:31;10.65;;;5.47;;
22652;SDS011;11493;43.344;26.226;2024-01-25T05:27:59;5.95;;;4.60;;
22652;SDS011;11493;43.344;26.226;2024-01-25T05:30:27;8.43;;;4.88;;
22652;SDS011;11493;43.344;26.226;2024-01-25T05:32:54;8.38;;;4.25;;
22652;SDS011;11493;43.344;26.226;2024-01-25T05:35:22;9.05;;;5.00;;
22652;SDS011;11493;43.344;26.226;2024-01-25T05:37:52;10.50;;;5.70;;
22652;SDS011;11493;43.344;26.226;2024-01-25T05:40:19;10.10;;;4.90;;
22652;SDS011;11493;43.344;26.226;2024-01-25T05:42:46;8.68;;;5.18;;
22652;SDS011;11493;43.344;26.226;2024-01-25T05:45:14;9.43;;;4.78;;
22652;SDS011;11493;43.344;26.226;2024-01-25T05:47:41;10.73;;;5.40;;
22652;SDS011;11493;43.344;26.226;2024-01-25T05:50:08;4.95;;;3.85;;
22652;SDS011;11493;43.344;26.226;2024-01-25T05:52:35;8.10;;;4.53;;
22652;SDS011;11493;43.344;26.226;2024-01-25T05:55:04;5.55;;;4.55;;
22652;SDS011;11493;43.344;26.226;2024-01-25T05:57:34;5.47;;;4.10;;
22652;SDS011;11493;43.344;26.226;2024-01-25T06:00:02;9.32;;;4.03;;
22652;SDS011;11493;43.344;26.226;2024-01-25T06:02:34;6.88;;;3.92;;
22652;SDS011;11493;43.344;26.226;2024-01-25T06:05:02;8.95;;;4.30;;
22652;SDS011;11493;43.344;26.226;2024-01-25T06:07:29;5.95;;;4.20;;
22652;SDS011;11493;43.344;26.226;2024-01-25T06:09:57;5.70;;;3.80;;
22652;SDS011;11493;43.344;26.226;2024-01-25T06:12:24;5.95;;;3.75;;
22652;SDS011;11493;43.344;26.226;2024-01-25T06:14:51;7.90;;;4.05;;
22652;SDS011;11493;43.344;26.226;2024-01-25T06:17:19;6.07;;;4.30;;
22652;SDS011;11493;43.344;26.226;2024-01-25T06:19:46;10.77;;;6.47;;
22652;SDS011;11493;43.344;26.226;2024-01-25T06:22:13;11.65;;;4.53;;
22652;SDS011;11493;43.344;26.226;2024-01-25T06:24:40;16.50;;;7.07;;
22652;SDS011;11493;43.344;26.226;2024-01-25T06:27:09;8.50;;;5.63;;
22652;SDS011;11493;43.344;26.226;2024-01-25T06:29:36;5.88;;;4.35;;
22652;SDS011;11493;43.344;26.226;2024-01-25T06:32:03;5.60;;;4.43;;
22652;SDS011;11493;43.344;26.226;2024-01-25T06:34:38;5.25;;;4.18;;
22652;SDS011;11493;43.344;26.226;2024-01-25T06:37:06;8.13;;;5.68;;
22652;SDS011;11493;43.344;26.226;2024-01-25T06:39:33;6.95;;;6.25;;
22652;SDS011;11493;43.344;26.226;2024-01-25T06:42:01;12.23;;;8.40;;
22652;SDS011;11493;43.344;26.226;2024-01-25T06:44:28;6.35;;;4.82;;
22652;SDS011;11493;43.344;26.226;2024-01-25T06:46:55;7.82;;;5.53;;
22652;SDS011;11493;43.344;26.226;2024-01-25T06:49:22;8.13;;;5.32;;
22652;SDS011;11493;43.344;26.226;2024-01-25T06:51:49;7.80;;;3.60;;
22652;SDS011;11493;43.344;26.226;2024-01-25T06:54:16;7.07;;;4.00;;
22652;SDS011;11493;43.344;26.226;2024-01-25T06:56:44;8.57;;;3.30;;
22652;SDS011;11493;43.344;26.226;2024-01-25T06:59:11;9.48;;;4.13;;
22652;SDS011;11493;43.344;26.226;2024-01-25T07:01:38;12.60;;;3.97;;
22652;SDS011;11493;43.344;26.226;2024-01-25T07:04:06;7.18;;;4.13;;
22652;SDS011;11493;43.344;26.226;2024-01-25T07:06:34;6.25;;;4.38;;
22652;SDS011;11493;43.344;26.226;2024-01-25T07:09:01;10.40;;;4.75;;
22652;SDS011;11493;43.344;26.226;2024-01-25T07:11:28;12.30;;;5.45;;
22652;SDS011;11493;43.344;26.226;2024-01-25T07:13:56;11.05;;;5.95;;
22652;SDS011;11493;43.344;26.226;2024-01-25T07:16:23;7.97;;;5.50;;
22652;SDS011;11493;43.344;26.226;2024-01-25T07:18:50;6.15;;;4.68;;
22652;SDS011;11493;43.344;26.226;2024-01-25T07:21:18;6.78;;;5.20;;
22652;SDS011;11493;43.344;26.226;2024-01-25T07:23:44;8.85;;;4.65;;
22652;SDS011;11493;43.344;26.226;2024-01-25T07:26:16;11.00;;;7.50;;
22652;SDS011;11493;43.344;26.226;2024-01-25T07:28:46;8.43;;;5.22;;
22652;SDS011;11493;43.344;26.226;2024-01-25T07:31:13;14.90;;;7.82;;
22652;SDS011;11493;43.344;26.226;2024-01-25T07:33:40;14.50;;;7.70;;
22652;SDS011;11493;43.344;26.226;2024-01-25T07:36:08;10.57;;;4.40;;
22652;SDS011;11493;43.344;26.226;2024-01-25T07:38:35;6.40;;;4.03;;
22652;SDS011;11493;43.344;26.226;2024-01-25T07:41:02;6.07;;;4.15;;
22652;SDS011;11493;43.344;26.226;2024-01-25T07:43:29;7.00;;;3.72;;
22652;SDS011;11493;43.344;26.226;2024-01-25T07:45:56;5.05;;;3.20;;
22652;SDS011;11493;43.344;26.226;2024-01-25T07:48:23;11.48;;;3.78;;
22652;SDS011;11493;43.344;26.226;2024-01-25T07:50:50;12.55;;;4.35;;
22652;SDS011;11493;43.344;26.226;2024-01-25T07:53:18;5.40;;;3.28;;
22652;SDS011;11493;43.344;26.226;2024-01-25T07:55:45;5.95;;;3.72;;
22652;SDS011;11493;43.344;26.226;2024-01-25T07:58:14;5.00;;;3.33;;
22652;SDS011;11493;43.344;26.226;2024-01-25T08:00:41;14.73;;;6.85;;
22652;SDS011;11493;43.344;26.226;2024-01-25T08:03:13;10.45;;;4.78;;
22652;SDS011;11493;43.344;26.226;2024-01-25T08:05:41;15.00;;;7.97;;
22652;SDS011;11493;43.344;26.226;2024-01-25T08:08:16;7.15;;;3.63;;
22652;SDS011;11493;43.344;26.226;2024-01-25T08:10:43;9.68;;;4.35;;
22652;SDS011;11493;43.344;26.226;2024-01-25T08:13:12;10.00;;;4.38;;
22652;SDS011;11493;43.344;26.226;2024-01-25T08:15:40;8.05;;;3.60;;
22652;SDS011;11493;43.344;26.226;2024-01-25T08:18:07;8.98;;;4.03;;
22652;SDS011;11493;43.344;26.226;2024-01-25T08:20:36;10.60;;;4.85;;
22652;SDS011;11493;43.344;26.226;2024-01-25T08:23:06;9.43;;;4.20;;
22652;SDS011;11493;43.344;26.226;2024-01-25T08:25:36;8.20;;;4.75;;
22652;SDS011;11493;43.344;26.226;2024-01-25T08:28:03;9.05;;;3.95;;
22652;SDS011;11493;43.344;26.226;2024-01-25T08:30:30;5.78;;;3.55;;
22652;SDS011;11493;43.344;26.226;2024-01-25T08:32:58;8.27;;;4.15;;
22652;SDS011;11493;43.344;26.226;2024-01-25T08:35:25;6.85;;;4.13;;
22652;SDS011;11493;43.344;26.226;2024-01-25T08:37:52;6.82;;;4.15;;
22652;SDS011;11493;43.344;26.226;2024-01-25T08:40:19;7.18;;;4.88;;
22652;SDS011;11493;43.344;26.226;2024-01-25T08:42:46;9.57;;;3.97;;
22652;SDS011;11493;43.344;26.226;2024-01-25T08:45:13;8.85;;;4.40;;
22652;SDS011;11493;43.344;26.226;2024-01-25T08:47:44;10.15;;;3.28;;
22652;SDS011;11493;43.344;26.226;2024-01-25T08:50:12;7.55;;;3.42;;
22652;SDS011;11493;43.344;26.226;2024-01-25T08:52:40;9.30;;;3.33;;
22652;SDS011;11493;43.344;26.226;2024-01-25T08:55:07;10.85;;;3.85;;
22652;SDS011;11493;43.344;26.226;2024-01-25T08:57:36;6.30;;;3.53;;
22652;SDS011;11493;43.344;26.226;2024-01-25T09:00:04;6.93;;;3.08;;
22652;SDS011;11493;43.344;26.226;2024-01-25T09:02:37;6.30;;;3.08;;
22652;SDS011;11493;43.344;26.226;2024-01-25T09:05:05;7.18;;;3.08;;
22652;SDS011;11493;43.344;26.226;2024-01-25T09:07:33;7.60;;;3.00;;
22652;SDS011;11493;43.344;26.226;2024-01-25T09:10:00;4.88;;;3.33;;
22652;SDS011;11493;43.344;26.226;2024-01-25T09:12:28;8.02;;;3.97;;
22652;SDS011;11493;43.344;26.226;2024-01-25T09:14:55;8.85;;;4.32;;
22652;SDS011;11493;43.344;26.226;2024-01-25T09:17:22;6.55;;;3.20;;
22652;SDS011;11493;43.344;26.226;2024-01-25T09:19:49;4.90;;;3.00;;
22652;SDS011;11493;43.344;26.226;2024-01-25T09:22:19;8.40;;;4.43;;
22652;SDS011;11493;43.344;26.226;2024-01-25T09:24:47;9.55;;;5.15;;
22652;SDS011;11493;43.344;26.226;2024-01-25T09:27:14;8.23;;;3.10;;
22652;SDS011;11493;43.344;26.226;2024-01-25T09:29:42;14.10;;;6.50;;
22652;SDS011;11493;43.344;26.226;2024-01-25T09:32:09;8.88;;;4.65;;
22652;SDS011;11493;43.344;26.226;2024-01-25T09:34:37;11.52;;;3.70;;
22652;SDS011;11493;43.344;26.226;2024-01-25T09:37:07;7.25;;;2.60;;
22652;SDS011;11493;43.344;26.226;2024-01-25T09:39:34;7.00;;;2.70;;
22652;SDS011;11493;43.344;26.226;2024-01-25T09:42:03;11.85;;;4.07;;
22652;SDS011;11493;43.344;26.226;2024-01-25T09:44:31;10.50;;;3.03;;
22652;SDS011;11493;43.344;26.226;2024-01-25T09:46:58;6.93;;;2.97;;
22652;SDS011;11493;43.344;26.226;2024-01-25T09:49:25;9.18;;;3.40;;
22652;SDS011;11493;43.344;26.226;2024-01-25T09:51:53;7.07;;;3.00;;
22652;SDS011;11493;43.344;26.226;2024-01-25T09:54:23;5.60;;;2.97;;
22652;SDS011;11493;43.344;26.226;2024-01-25T09:56:50;8.88;;;3.42;;
22652;SDS011;11493;43.344;26.226;2024-01-25T09:59:20;10.27;;;3.15;;
22652;SDS011;11493;43.344;26.226;2024-01-25T10:01:48;10.25;;;3.45;;
22652;SDS011;11493;43.344;26.226;2024-01-25T10:04:18;8.57;;;3.50;;
22652;SDS011;11493;43.344;26.226;2024-01-25T10:06:48;11.00;;;4.18;;
22652;SDS011;11493;43.344;26.226;2024-01-25T10:09:16;7.22;;;3.10;;
22652;SDS011;11493;43.344;26.226;2024-01-25T10:11:43;11.18;;;3.10;;
22652;SDS011;11493;43.344;26.226;2024-01-25T10:14:19;10.05;;;3.83;;
22652;SDS011;11493;43.344;26.226;2024-01-25T10:16:46;10.32;;;4.07;;
22652;SDS011;11493;43.344;26.226;2024-01-25T10:19:14;11.20;;;3.25;;
22652;SDS011;11493;43.344;26.226;2024-01-25T10:21:41;10.93;;;3.85;;
22652;SDS011;11493;43.344;26.226;2024-01-25T10:24:09;7.88;;;4.00;;
22652;SDS011;11493;43.344;26.226;2024-01-25T10:26:38;9.93;;;3.88;;
22652;SDS011;11493;43.344;26.226;2024-01-25T10:29:05;11.80;;;3.30;;
22652;SDS011;11493;43.344;26.226;2024-01-25T10:31:41;8.65;;;3.25;;
22652;SDS011;11493;43.344;26.226;2024-01-25T10:34:11;8.45;;;3.95;;
22652;SDS011;11493;43.344;26.226;2024-01-25T10:36:40;16.85;;;4.85;;
22652;SDS011;11493;43.344;26.226;2024-01-25T10:39:09;13.25;;;5.03;;
22652;SDS011;11493;43.344;26.226;2024-01-25T10:41:36;11.98;;;4.30;;
22652;SDS011;11493;43.344;26.226;2024-01-25T10:44:04;9.52;;;4.30;;
22652;SDS011;11493;43.344;26.226;2024-01-25T10:46:33;8.68;;;3.47;;
22652;SDS011;11493;43.344;26.226;2024-01-25T10:49:01;12.63;;;3.40;;
22652;SDS011;11493;43.344;26.226;2024-01-25T10:51:29;11.50;;;3.67;;
22652;SDS011;11493;43.344;26.226;2024-01-25T10:53:57;12.18;;;3.88;;
22652;SDS011;11493;43.344;26.226;2024-01-25T10:56:25;9.35;;;4.18;;
22652;SDS011;11493;43.344;26.226;2024-01-25T10:58:53;10.70;;;4.20;;
22652;SDS011;11493;43.344;26.226;2024-01-25T11:01:20;10.93;;;3.70;;
22652;SDS011;11493;43.344;26.226;2024-01-25T11:03:47;9.25;;;3.85;;
22652;SDS011;11493;43.344;26.226;2024-01-25T11:06:15;7.05;;;3.90;;
22652;SDS011;11493;43.344;26.226;2024-01-25T11:08:42;10.38;;;4.30;;
22652;SDS011;11493;43.344;26.226;2024-01-25T11:11:13;18.15;;;5.07;;
22652;SDS011;11493;43.344;26.226;2024-01-25T11:13:42;12.75;;;5.30;;
22652;SDS011;11493;43.344;26.226;2024-01-25T11:18:50;9.93;;;3.92;;
22652;SDS011;11493;43.344;26.226;2024-01-25T11:24:16;15.15;;;6.22;;
22652;SDS011;11493;43.344;26.226;2024-01-25T11:26:51;7.32;;;3.70;;
22652;SDS011;11493;43.344;26.226;2024-01-25T11:29:21;8.13;;;4.03;;
22652;SDS011;11493;43.344;26.226;2024-01-25T11:31:50;6.20;;;3.33;;
22652;SDS011;11493;43.344;26.226;2024-01-25T11:34:19;14.70;;;4.03;;
22652;SDS011;11493;43.344;26.226;2024-01-25T11:36:47;10.55;;;4.10;;
22652;SDS011;11493;43.344;26.226;2024-01-25T11:39:15;13.85;;;5.20;;
22652;SDS011;11493;43.344;26.226;2024-01-25T11:41:43;12.45;;;4.25;;
22652;SDS011;11493;43.344;26.226;2024-01-25T11:44:18;11.05;;;3.92;;
22652;SDS011;11493;43.344;26.226;2024-01-25T11:46:45;10.23;;;3.58;;
22652;SDS011;11493;43.344;26.226;2024-01-25T11:49:13;12.43;;;4.50;;
22652;SDS011;11493;43.344;26.226;2024-01-25T11:51:40;9.13;;;3.72;;
22652;SDS011;11493;43.344;26.226;2024-01-25T11:54:07;15.68;;;3.85;;
22652;SDS011;11493;43.344;26.226;2024-01-25T11:56:35;20.30;;;4.55;;
22652;SDS011;11493;43.344;26.226;2024-01-25T11:59:08;10.88;;;4.63;;
22652;SDS011;11493;43.344;26.226;2024-01-25T12:01:37;10.57;;;3.97;;
22652;SDS011;11493;43.344;26.226;2024-01-25T12:04:05;13.35;;;3.83;;
22652;SDS011;11493;43.344;26.226;2024-01-25T12:06:34;17.67;;;4.70;;
22652;SDS011;11493;43.344;26.226;2024-01-25T12:09:08;10.85;;;4.70;;
22652;SDS011;11493;43.344;26.226;2024-01-25T12:11:38;13.45;;;4.80;;
22652;SDS011;11493;43.344;26.226;2024-01-25T12:14:11;16.35;;;4.50;;
22652;SDS011;11493;43.344;26.226;2024-01-25T12:16:38;10.32;;;3.40;;
22652;SDS011;11493;43.344;26.226;2024-01-25T12:19:06;13.95;;;3.45;;
22652;SDS011;11493;43.344;26.226;2024-01-25T12:21:34;13.00;;;3.70;;
22652;SDS011;11493;43.344;26.226;2024-01-25T12:24:03;6.50;;;3.95;;
22652;SDS011;11493;43.344;26.226;2024-01-25T12:26:34;12.10;;;4.43;;
22652;SDS011;11493;43.344;26.226;2024-01-25T12:29:02;7.50;;;3.75;;
22652;SDS011;11493;43.344;26.226;2024-01-25T12:31:29;7.55;;;3.92;;
22652;SDS011;11493;43.344;26.226;2024-01-25T12:33:58;9.98;;;4.13;;
22652;SDS011;11493;43.344;26.226;2024-01-25T12:36:27;16.73;;;4.57;;
22652;SDS011;11493;43.344;26.226;2024-01-25T12:38:54;19.85;;;4.32;;
22652;SDS011;11493;43.344;26.226;2024-01-25T12:41:21;12.07;;;4.28;;
22652;SDS011;11493;43.344;26.226;2024-01-25T12:43:49;9.07;;;3.53;;
22652;SDS011;11493;43.344;26.226;2024-01-25T12:46:16;10.88;;;4.57;;
22652;SDS011;11493;43.344;26.226;2024-01-25T12:48:53;13.50;;;3.35;;
22652;SDS011;11493;43.344;26.226;2024-01-25T12:51:24;10.60;;;3.57;;
22652;SDS011;11493;43.344;26.226;2024-01-25T12:53:52;7.90;;;3.35;;
22652;SDS011;11493;43.344;26.226;2024-01-25T12:56:19;15.68;;;5.13;;
22652;SDS011;11493;43.344;26.226;2024-01-25T12:58:46;20.75;;;9.65;;
22652;SDS011;11493;43.344;26.226;2024-01-25T13:01:14;16.25;;;7.70;;
22652;SDS011;11493;43.344;26.226;2024-01-25T13:03:43;18.50;;;7.45;;
22652;SDS011;11493;43.344;26.226;2024-01-25T13:06:13;14.77;;;5.65;;
22652;SDS011;11493;43.344;26.226;2024-01-25T13:08:40;19.67;;;5.90;;
22652;SDS011;11493;43.344;26.226;2024-01-25T13:11:07;14.40;;;4.50;;
22652;SDS011;11493;43.344;26.226;2024-01-25T13:13:34;17.75;;;5.57;;
22652;SDS011;11493;43.344;26.226;2024-01-25T13:16:01;14.40;;;4.30;;
22652;SDS011;11493;43.344;26.226;2024-01-25T13:18:28;9.80;;;3.25;;
22652;SDS011;11493;43.344;26.226;2024-01-25T13:20:55;17.90;;;3.53;;
22652;SDS011;11493;43.344;26.226;2024-01-25T13:23:22;14.25;;;3.55;;
22652;SDS011;11493;43.344;26.226;2024-01-25T13:25:49;12.60;;;4.18;;
22652;SDS011;11493;43.344;26.226;2024-01-25T13:28:16;12.70;;;4.10;;
22652;SDS011;11493;43.344;26.226;2024-01-25T13:30:48;8.00;;;3.90;;
22652;SDS011;11493;43.344;26.226;2024-01-25T13:33:15;8.85;;;3.13;;
22652;SDS011;11493;43.344;26.226;2024-01-25T13:35:42;9.45;;;3.50;;
22652;SDS011;11493;43.344;26.226;2024-01-25T13:38:10;16.52;;;4.45;;
22652;SDS011;11493;43.344;26.226;2024-01-25T13:43:08;11.32;;;2.75;;
22652;SDS011;11493;43.344;26.226;2024-01-25T13:45:35;12.18;;;3.38;;
22652;SDS011;11493;43.344;26.226;2024-01-25T13:48:02;14.13;;;3.90;;
22652;SDS011;11493;43.344;26.226;2024-01-25T13:50:30;14.98;;;4.55;;
22652;SDS011;11493;43.344;26.226;2024-01-25T13:52:57;14.95;;;4.43;;
22652;SDS011;11493;43.344;26.226;2024-01-25T13:55:24;18.60;;;4.30;;
22652;SDS011;11493;43.344;26.226;2024-01-25T13:57:51;14.95;;;3.85;;
22652;SDS011;11493;43.344;26.226;2024-01-25T14:00:18;11.32;;;3.70;;
22652;SDS011;11493;43.344;26.226;2024-01-25T14:02:45;14.02;;;6.00;;
22652;SDS011;11493;43.344;26.226;2024-01-25T14:05:13;14.85;;;4.65;;
22652;SDS011;11493;43.344;26.226;2024-01-25T14:07:41;11.68;;;5.25;;
22652;SDS011;11493;43.344;26.226;2024-01-25T14:10:09;18.48;;;5.18;;
22652;SDS011;11493;43.344;26.226;2024-01-25T14:12:37;12.50;;;4.10;;
22652;SDS011;11493;43.344;26.226;2024-01-25T14:15:04;13.07;;;4.63;;
22652;SDS011;11493;43.344;26.226;2024-01-25T14:17:31;14.05;;;4.20;;
22652;SDS011;11493;43.344;26.226;2024-01-25T14:19:59;12.98;;;5.10;;
22652;SDS011;11493;43.344;26.226;2024-01-25T14:22:28;13.45;;;4.05;;
22652;SDS011;11493;43.344;26.226;2024-01-25T14:25:00;12.13;;;3.80;;
22652;SDS011;11493;43.344;26.226;2024-01-25T14:27:27;13.90;;;4.25;;
22652;SDS011;11493;43.344;26.226;2024-01-25T14:29:55;12.43;;;4.10;;
22652;SDS011;11493;43.344;26.226;2024-01-25T14:32:26;14.23;;;3.88;;
22652;SDS011;11493;43.344;26.226;2024-01-25T14:34:53;18.00;;;5.55;;
22652;SDS011;11493;43.344;26.226;2024-01-25T14:37:20;15.90;;;4.65;;
22652;SDS011;11493;43.344;26.226;2024-01-25T14:39:47;13.07;;;4.57;;